North Platte, Nebraska
Current Conditions -  °F | °C
As of 6:53 AM on Saturday 25 Oct 2014 (Local Time) from KLBF Reporting Station
Clear Clear  
Wind Chill: 29°   Ceiling: Unl
Heat Index: 34°   Visibility: 10mi
Dew Point: 31°   Wind: 6mph
Humidity: 89%   Direction: 310°NW
Pressure: 30.11"   Gusts: NA
Location:  41.14°N, 100.76°W
Report Text: KLBF 251153Z AUTO 31005KT 10SM CLR 01/M01 A3011 RMK AO2 SLP195 T00111006 10061 20011 53007
Loading
Personal Weather Stations






























Interactive Weather Map New forecast layout! Learn more

10-Day Weather Forecast

Advertisements
Track Severe Weather on mobile